createdAt,value
2023-04-03T00:00:54.567Z,94.90
2023-04-03T00:01:54.509Z,95.00
2023-04-03T00:02:54.511Z,95.04
2023-04-03T00:03:54.525Z,94.90
2023-04-03T00:04:54.438Z,94.94
2023-04-03T00:05:54.422Z,94.94
2023-04-03T00:06:54.498Z,95.04
2023-04-03T00:07:54.396Z,95.00
2023-04-03T00:08:54.404Z,95.00
2023-04-03T00:09:54.405Z,94.94
2023-04-03T00:10:55.338Z,94.94
2023-04-03T00:11:54.354Z,94.94
2023-04-03T00:12:54.355Z,94.94
2023-04-03T00:13:58.504Z,94.94
2023-04-03T00:14:54.349Z,95.04
2023-04-03T00:15:54.367Z,95.04
2023-04-03T00:16:54.323Z,95.04
2023-04-03T00:17:54.332Z,95.04
2023-04-03T00:18:54.294Z,95.15
2023-04-03T00:19:54.288Z,95.15
2023-04-03T00:20:54.265Z,95.04
2023-04-03T00:21:54.277Z,94.94
2023-04-03T00:22:54.512Z,94.84
2023-04-03T00:23:54.231Z,94.84
2023-04-03T00:24:54.215Z,94.88
2023-04-03T00:25:54.202Z,94.98
2023-04-03T00:26:54.200Z,94.98
2023-04-03T00:27:54.204Z,95.09
2023-04-03T00:28:54.201Z,95.09
2023-04-03T00:29:55.125Z,95.19
2023-04-03T00:30:54.206Z,95.19
2023-04-03T00:31:54.137Z,95.19
2023-04-03T00:32:54.170Z,95.19
2023-04-03T00:33:54.160Z,95.29
2023-04-03T00:34:54.096Z,95.40
2023-04-03T00:35:54.160Z,95.50
2023-04-03T00:36:54.139Z,95.82
2023-04-03T00:37:54.076Z,95.88
2023-04-03T00:38:54.072Z,96.19
2023-04-03T00:39:54.090Z,96.19
2023-04-03T00:40:54.040Z,96.19
2023-04-03T00:41:54.041Z,96.40
2023-04-03T00:42:54.043Z,96.40
2023-04-03T00:43:54.018Z,96.40
2023-04-03T00:44:55.077Z,96.40
2023-04-03T00:45:54.038Z,96.40
2023-04-03T00:46:53.983Z,96.50
2023-04-03T00:47:53.989Z,96.50
2023-04-03T00:48:53.994Z,96.50
2023-04-03T00:49:53.935Z,96.50
2023-04-03T00:50:53.943Z,96.50
2023-04-03T00:51:53.917Z,96.50
2023-04-03T00:52:53.946Z,96.40
2023-04-03T00:53:53.928Z,96.30
2023-04-03T00:54:53.894Z,96.40
2023-04-03T00:55:53.905Z,96.30
2023-04-03T00:56:53.897Z,96.30
2023-04-03T00:57:53.842Z,96.30
2023-04-03T00:58:53.876Z,96.30
2023-04-03T00:59:53.842Z,96.30
2023-04-03T01:00:53.875Z,96.30
2023-04-03T01:01:53.826Z,96.30
2023-04-03T01:02:53.809Z,96.30
2023-04-03T01:03:53.844Z,96.30
2023-04-03T01:04:53.781Z,96.30
2023-04-03T01:05:53.776Z,96.30
2023-04-03T01:06:53.789Z,96.30
2023-04-03T01:07:53.746Z,96.30
2023-04-03T01:08:53.758Z,96.30
2023-04-03T01:09:53.730Z,96.30
2023-04-03T01:10:53.724Z,96.19
2023-04-03T01:11:53.705Z,96.19
2023-04-03T01:12:53.735Z,96.19
2023-04-03T01:13:53.695Z,96.19
2023-04-03T01:14:53.667Z,96.09
2023-04-03T01:15:55.257Z,96.09
2023-04-03T01:16:53.657Z,96.09
2023-04-03T01:17:53.669Z,96.04
2023-04-03T01:18:53.670Z,95.94
2023-04-03T01:19:53.632Z,95.94
2023-04-03T01:20:53.590Z,95.83
2023-04-03T01:21:53.584Z,95.83
2023-04-03T01:22:53.588Z,95.73
2023-04-03T01:23:53.606Z,95.62
2023-04-03T01:24:53.570Z,95.67
2023-04-03T01:25:53.575Z,95.67
2023-04-03T01:26:53.542Z,95.56
2023-04-03T01:27:53.536Z,95.56
2023-04-03T01:28:53.549Z,95.56
2023-04-03T01:29:53.565Z,95.46
2023-04-03T01:30:53.500Z,95.46
2023-04-03T01:31:53.652Z,95.36
2023-04-03T01:32:53.507Z,95.36
2023-04-03T01:33:53.481Z,95.36
2023-04-03T01:34:53.452Z,95.25
2023-04-03T01:35:53.515Z,95.25
2023-04-03T01:36:54.407Z,95.25
2023-04-03T01:37:53.444Z,95.15
2023-04-03T01:38:53.467Z,95.15
2023-04-03T01:39:53.408Z,95.15
2023-04-03T01:40:53.419Z,95.15
2023-04-03T01:41:53.403Z,95.15
2023-04-03T01:42:53.428Z,95.15
2023-04-03T01:43:53.385Z,95.15
2023-04-03T01:44:53.469Z,95.15
2023-04-03T01:45:54.485Z,95.15
2023-04-03T01:46:54.199Z,95.15
2023-04-03T01:47:53.363Z,95.15
2023-04-03T01:48:53.319Z,95.15
2023-04-03T01:49:53.303Z,95.04
2023-04-03T01:50:53.288Z,95.04
2023-04-03T01:51:53.485Z,94.94
2023-04-03T01:52:53.400Z,94.94
2023-04-03T01:53:53.259Z,94.94
2023-04-03T01:54:53.561Z,94.94
2023-04-03T01:55:54.197Z,94.94
2023-04-03T01:56:53.309Z,94.94
2023-04-03T01:57:53.283Z,94.94
2023-04-03T01:58:54.215Z,94.84
2023-04-03T01:59:53.194Z,94.88
2023-04-03T02:00:53.258Z,94.88
2023-04-03T02:01:53.166Z,94.88
2023-04-03T02:02:53.627Z,94.88
2023-04-03T02:03:54.637Z,94.88
2023-04-03T02:04:53.137Z,94.88
2023-04-03T02:05:54.029Z,94.88
2023-04-03T02:06:53.183Z,94.88
2023-04-03T02:07:57.564Z,94.78
2023-04-03T02:08:53.115Z,94.78
2023-04-03T02:09:53.060Z,94.78
2023-04-03T02:10:53.108Z,94.92
2023-04-03T02:11:53.078Z,94.92
2023-04-03T02:12:53.069Z,94.92
2023-04-03T02:13:53.047Z,94.92
2023-04-03T02:14:53.033Z,94.92
2023-04-03T02:15:53.007Z,94.92
2023-04-03T02:16:53.073Z,94.92
2023-04-03T02:17:53.029Z,95.03
2023-04-03T02:18:53.033Z,95.13
2023-04-03T02:19:54.435Z,95.23
2023-04-03T02:20:52.960Z,95.34
2023-04-03T02:21:52.937Z,95.44
2023-04-03T02:22:52.937Z,95.55
2023-04-03T02:23:52.930Z,95.55
2023-04-03T02:24:53.737Z,95.55
2023-04-03T02:25:52.889Z,95.55
2023-04-03T02:26:52.886Z,95.55
2023-04-03T02:27:52.889Z,95.65
2023-04-03T02:28:54.336Z,95.65
2023-04-03T02:29:52.885Z,95.76
2023-04-03T02:30:52.872Z,95.76
2023-04-03T02:31:52.866Z,95.76
2023-04-03T02:32:52.988Z,95.86
2023-04-03T02:33:52.853Z,95.86
2023-04-03T02:34:52.798Z,95.86
2023-04-03T02:35:53.078Z,95.97
2023-04-03T02:36:52.782Z,95.97
2023-04-03T02:37:52.785Z,95.97
2023-04-03T02:38:52.816Z,95.97
2023-04-03T02:39:52.741Z,95.97
2023-04-03T02:40:52.737Z,96.07
2023-04-03T02:41:52.731Z,96.07
2023-04-03T02:42:52.755Z,96.07
2023-04-03T02:43:53.767Z,96.07
2023-04-03T02:44:52.740Z,96.17
2023-04-03T02:45:52.701Z,96.17
2023-04-03T02:46:52.684Z,96.17
2023-04-03T02:47:52.716Z,96.17
2023-04-03T02:48:52.666Z,96.28
2023-04-03T02:49:52.680Z,96.28
2023-04-03T02:50:52.621Z,96.28
2023-04-03T02:51:52.604Z,96.38
2023-04-03T02:52:52.643Z,96.38
2023-04-03T02:53:52.592Z,96.49
2023-04-03T02:54:52.584Z,96.49
2023-04-03T02:55:52.609Z,96.49
2023-04-03T02:56:52.618Z,96.59
2023-04-03T02:57:52.552Z,96.59
2023-04-03T02:58:52.557Z,96.59
2023-04-03T02:59:52.554Z,96.59
2023-04-03T03:00:52.511Z,96.59
2023-04-03T03:01:52.561Z,96.55
2023-04-03T03:02:52.515Z,96.55
2023-04-03T03:03:52.479Z,96.55
2023-04-03T03:04:52.540Z,96.55
2023-04-03T03:05:53.960Z,96.55
2023-04-03T03:06:52.441Z,96.55
2023-04-03T03:07:52.469Z,96.55
2023-04-03T03:08:52.434Z,96.44
2023-04-03T03:09:53.365Z,96.44
2023-04-03T03:10:52.905Z,96.44
2023-04-03T03:11:53.232Z,96.34
2023-04-03T03:12:52.383Z,96.34
2023-04-03T03:13:52.381Z,96.34
2023-04-03T03:14:52.380Z,96.28
2023-04-03T03:15:52.573Z,96.28
2023-04-03T03:16:53.192Z,96.17
2023-04-03T03:17:53.220Z,96.17
2023-04-03T03:18:53.785Z,96.17
2023-04-03T03:19:53.361Z,96.07
2023-04-03T03:20:53.765Z,96.07
2023-04-03T03:21:52.862Z,95.97
2023-04-03T03:22:53.081Z,95.97
2023-04-03T03:23:53.753Z,95.97
2023-04-03T03:24:52.564Z,95.86
2023-04-03T03:25:53.721Z,95.86
2023-04-03T03:26:52.266Z,95.86
2023-04-03T03:27:52.251Z,95.86
2023-04-03T03:28:52.213Z,95.97
2023-04-03T03:29:53.168Z,95.97
2023-04-03T03:30:52.188Z,95.86
2023-04-03T03:31:53.074Z,95.86
2023-04-03T03:32:53.704Z,95.86
2023-04-03T03:33:52.248Z,95.86
2023-04-03T03:34:52.146Z,95.97
2023-04-03T03:35:52.193Z,95.97
2023-04-03T03:36:52.145Z,95.97
2023-04-03T03:37:53.087Z,95.97
2023-04-03T03:38:52.095Z,95.97
2023-04-03T03:39:52.369Z,95.92
2023-04-03T03:40:56.039Z,95.92
2023-04-03T03:41:52.067Z,95.92
2023-04-03T03:42:52.055Z,95.82
2023-04-03T03:43:52.158Z,95.82
2023-04-03T03:44:52.054Z,95.72
2023-04-03T03:45:52.040Z,95.56
2023-04-03T03:46:52.067Z,95.46
2023-04-03T03:47:52.120Z,95.36
2023-04-03T03:48:52.865Z,95.25
2023-04-03T03:49:52.526Z,95.15
2023-04-03T03:50:52.225Z,94.94
2023-04-03T03:51:51.978Z,94.84
2023-04-03T03:52:51.947Z,94.63
2023-04-03T03:53:51.968Z,94.48
2023-04-03T03:54:51.912Z,94.27
2023-04-03T03:55:51.967Z,94.17
2023-04-03T03:56:51.934Z,94.06
2023-04-03T03:57:51.912Z,93.85
2023-04-03T03:58:51.912Z,93.65
2023-04-03T03:59:51.875Z,93.44
2023-04-03T04:00:51.878Z,93.08
2023-04-03T04:01:51.990Z,92.87
2023-04-03T04:02:51.943Z,92.77
2023-04-03T04:03:51.865Z,92.56
2023-04-03T04:04:51.969Z,92.35
2023-04-03T04:05:51.808Z,92.14
2023-04-03T04:06:51.903Z,91.93
2023-04-03T04:07:51.784Z,91.72
2023-04-03T04:08:51.816Z,91.72
2023-04-03T04:09:51.763Z,91.62
2023-04-03T04:10:51.789Z,91.62
2023-04-03T04:11:51.751Z,91.52
2023-04-03T04:12:51.799Z,91.41
2023-04-03T04:13:51.756Z,91.31
2023-04-03T04:14:51.944Z,91.20
2023-04-03T04:15:53.160Z,91.06
2023-04-03T04:16:51.793Z,90.85
2023-04-03T04:17:52.559Z,90.75
2023-04-03T04:18:51.662Z,90.54
2023-04-03T04:19:51.666Z,90.64
2023-04-03T04:20:51.636Z,90.95
2023-04-03T04:21:51.935Z,91.12
2023-04-03T04:22:53.076Z,91.12
2023-04-03T04:23:51.613Z,91.02
2023-04-03T04:24:52.036Z,90.70
2023-04-03T04:25:51.624Z,90.50
2023-04-03T04:26:51.592Z,90.19
2023-04-03T04:27:52.585Z,89.87
2023-04-03T04:28:51.608Z,89.66
2023-04-03T04:29:51.561Z,89.35
2023-04-03T04:30:51.640Z,89.25
2023-04-03T04:31:53.003Z,89.04
2023-04-03T04:32:52.093Z,88.87
2023-04-03T04:33:51.521Z,88.87
2023-04-03T04:34:51.535Z,88.76
2023-04-03T04:35:51.643Z,88.76
2023-04-03T04:36:51.545Z,88.76
2023-04-03T04:37:51.497Z,88.56
2023-04-03T04:38:51.455Z,88.45
2023-04-03T04:39:51.447Z,88.35
2023-04-03T04:40:51.732Z,88.24
2023-04-03T04:41:51.438Z,88.14
2023-04-03T04:42:51.419Z,88.14
2023-04-03T04:43:51.422Z,88.14
2023-04-03T04:44:51.380Z,88.14
2023-04-03T04:45:51.404Z,88.14
2023-04-03T04:46:51.372Z,88.14
2023-04-03T04:47:51.379Z,88.04
2023-04-03T04:48:51.332Z,87.79
2023-04-03T04:49:51.355Z,87.58
2023-04-03T04:50:51.299Z,87.37
2023-04-03T04:51:52.501Z,87.16
2023-04-03T04:52:51.282Z,86.96
2023-04-03T04:53:51.281Z,86.96
2023-04-03T04:54:51.572Z,86.85
2023-04-03T04:55:51.258Z,86.75
2023-04-03T04:56:51.299Z,86.75
2023-04-03T04:57:51.259Z,86.65
2023-04-03T04:58:52.720Z,86.54
2023-04-03T04:59:51.218Z,86.54
2023-04-03T05:00:51.234Z,86.43
2023-04-03T05:01:51.236Z,86.33
2023-04-03T05:02:51.251Z,86.22
2023-04-03T05:03:51.790Z,86.22
2023-04-03T05:04:51.332Z,86.22
2023-04-03T05:05:51.216Z,86.12
2023-04-03T05:06:51.393Z,86.02
2023-04-03T05:07:51.216Z,85.91
2023-04-03T05:08:51.120Z,85.81
2023-04-03T05:09:51.184Z,85.71
2023-04-03T05:10:51.130Z,85.71
2023-04-03T05:11:51.110Z,85.60
2023-04-03T05:12:51.077Z,85.50
2023-04-03T05:13:51.113Z,85.29
2023-04-03T05:14:51.058Z,85.29
2023-04-03T05:15:51.081Z,85.29
2023-04-03T05:16:52.552Z,85.19
2023-04-03T05:17:51.097Z,85.19
2023-04-03T05:18:51.011Z,85.19
2023-04-03T05:19:51.040Z,85.08
2023-04-03T05:20:51.027Z,84.98
2023-04-03T05:21:51.000Z,84.94
2023-04-03T05:22:51.013Z,84.98
2023-04-03T05:23:50.974Z,85.08
2023-04-03T05:24:51.943Z,85.08
2023-04-03T05:25:50.966Z,85.08
2023-04-03T05:26:50.922Z,85.08
2023-04-03T05:27:51.012Z,85.08
2023-04-03T05:28:50.962Z,85.08
2023-04-03T05:29:51.951Z,85.19
2023-04-03T05:30:50.871Z,85.29
2023-04-03T05:31:50.911Z,85.39
2023-04-03T05:32:50.901Z,85.50
2023-04-03T05:33:50.886Z,85.60
2023-04-03T05:34:50.845Z,85.74
2023-04-03T05:35:50.902Z,85.85
2023-04-03T05:36:50.813Z,85.85
2023-04-03T05:37:50.812Z,85.96
2023-04-03T05:38:50.807Z,86.06
2023-04-03T05:39:50.795Z,86.16
2023-04-03T05:40:50.803Z,86.27
2023-04-03T05:41:50.777Z,86.27
2023-04-03T05:42:50.851Z,86.16
2023-04-03T05:43:50.761Z,86.16
2023-04-03T05:44:50.718Z,86.27
2023-04-03T05:45:50.824Z,86.27
2023-04-03T05:46:50.712Z,86.37
2023-04-03T05:47:50.729Z,86.33
2023-04-03T05:48:50.702Z,86.33
2023-04-03T05:49:50.696Z,86.22
2023-04-03T05:50:50.660Z,86.12
2023-04-03T05:51:50.681Z,86.12
2023-04-03T05:52:50.657Z,86.12
2023-04-03T05:53:50.654Z,86.12
2023-04-03T05:54:50.639Z,86.22
2023-04-03T05:55:51.406Z,86.22
2023-04-03T05:56:50.642Z,86.22
2023-04-03T05:57:50.658Z,86.22
2023-04-03T05:58:50.586Z,86.12
2023-04-03T05:59:50.575Z,86.02
2023-04-03T06:00:50.581Z,85.91
2023-04-03T06:01:50.537Z,85.81
2023-04-03T06:02:50.788Z,85.71
2023-04-03T06:03:50.763Z,85.67
2023-04-03T06:04:50.651Z,85.67
2023-04-03T06:05:50.499Z,85.67
2023-04-03T06:06:50.550Z,85.67
2023-04-03T06:07:50.507Z,85.67
2023-04-03T06:08:50.469Z,85.56
2023-04-03T06:09:50.473Z,85.56
2023-04-03T06:10:50.460Z,85.56
2023-04-03T06:11:50.453Z,85.46
2023-04-03T06:12:50.454Z,85.25
2023-04-03T06:13:50.420Z,84.94
2023-04-03T06:14:50.395Z,84.83
2023-04-03T06:15:50.391Z,84.69
2023-04-03T06:16:50.417Z,84.59
2023-04-03T06:17:50.428Z,84.48
2023-04-03T06:18:50.386Z,84.38
2023-04-03T06:19:50.336Z,84.27
2023-04-03T06:20:50.334Z,84.06
2023-04-03T06:21:50.334Z,83.86
2023-04-03T06:22:50.321Z,83.75
2023-04-03T06:23:50.302Z,83.65
2023-04-03T06:24:50.342Z,83.65
2023-04-03T06:25:50.273Z,83.54
2023-04-03T06:26:50.290Z,83.54
2023-04-03T06:27:50.363Z,83.34
2023-04-03T06:28:50.245Z,83.20
2023-04-03T06:29:50.251Z,83.09
2023-04-03T06:30:50.256Z,82.99
2023-04-03T06:31:50.286Z,82.78
2023-04-03T06:32:50.238Z,82.57
2023-04-03T06:33:50.204Z,82.46
2023-04-03T06:34:50.172Z,82.26
2023-04-03T06:35:50.203Z,82.05
2023-04-03T06:36:50.153Z,82.05
2023-04-03T06:37:50.154Z,81.95
2023-04-03T06:38:50.149Z,81.84
2023-04-03T06:39:50.203Z,81.84
2023-04-03T06:40:50.148Z,81.74
2023-04-03T06:41:50.104Z,81.49
2023-04-03T06:42:50.117Z,81.43
2023-04-03T06:43:51.033Z,81.39
2023-04-03T06:44:50.099Z,81.49
2023-04-03T06:45:50.091Z,81.49
2023-04-03T06:46:50.058Z,81.49
2023-04-03T06:47:50.113Z,81.39
2023-04-03T06:48:50.041Z,81.39
2023-04-03T06:49:50.019Z,81.49
2023-04-03T06:50:50.088Z,81.49
2023-04-03T06:51:50.007Z,81.49
2023-04-03T06:52:50.055Z,81.35
2023-04-03T06:53:49.975Z,81.35
2023-04-03T06:54:50.006Z,81.35
2023-04-03T06:55:49.960Z,81.25
2023-04-03T06:56:49.996Z,81.04
2023-04-03T06:57:49.937Z,80.94
2023-04-03T06:58:49.905Z,80.73
2023-04-03T06:59:49.930Z,80.63
2023-04-03T07:00:49.903Z,80.32
2023-04-03T07:01:49.935Z,80.21
2023-04-03T07:02:50.808Z,80.00
2023-04-03T07:03:49.860Z,79.80
2023-04-03T07:04:49.890Z,79.90
2023-04-03T07:05:49.854Z,79.90
2023-04-03T07:06:49.855Z,79.69
2023-04-03T07:07:49.844Z,79.55
2023-04-03T07:08:49.826Z,79.55
2023-04-03T07:09:49.829Z,79.44
2023-04-03T07:10:49.778Z,79.24
2023-04-03T07:11:49.798Z,79.34
2023-04-03T07:12:49.761Z,79.34
2023-04-03T07:13:49.778Z,79.13
2023-04-03T07:14:49.732Z,78.92
2023-04-03T07:15:49.788Z,78.92
2023-04-03T07:16:49.720Z,79.03
2023-04-03T07:17:49.760Z,79.03
2023-04-03T07:18:49.706Z,79.13
2023-04-03T07:19:49.686Z,78.89
2023-04-03T07:20:49.689Z,78.78
2023-04-03T07:21:49.664Z,78.68
2023-04-03T07:22:49.798Z,78.58
2023-04-03T07:24:49.627Z,78.37
2023-04-03T07:25:49.634Z,78.37
2023-04-03T07:26:49.646Z,78.37
2023-04-03T07:27:49.650Z,78.27
2023-04-03T07:28:49.598Z,77.95
2023-04-03T07:29:49.586Z,77.82
2023-04-03T07:30:49.565Z,77.82
2023-04-03T07:31:49.556Z,77.72
2023-04-03T07:32:49.642Z,77.61
2023-04-03T07:33:49.555Z,77.61
2023-04-03T07:34:49.529Z,77.30
2023-04-03T07:35:49.551Z,77.09
2023-04-03T07:36:49.498Z,76.99
2023-04-03T07:37:49.476Z,76.89
2023-04-03T07:38:50.123Z,76.85
2023-04-03T07:39:49.466Z,76.75
2023-04-03T07:40:49.478Z,76.75
2023-04-03T07:41:49.447Z,76.75
2023-04-03T07:42:49.458Z,76.75
2023-04-03T07:43:49.420Z,76.64
2023-04-03T07:44:49.450Z,76.64
2023-04-03T07:45:49.480Z,76.75
2023-04-03T07:46:49.429Z,76.54
2023-04-03T07:47:49.412Z,76.09
2023-04-03T07:48:49.407Z,75.46
2023-04-03T07:49:50.234Z,75.15
2023-04-03T07:50:49.390Z,75.57
2023-04-03T07:51:50.194Z,76.09
2023-04-03T07:52:49.331Z,76.40
2023-04-03T07:53:49.314Z,76.05
2023-04-03T07:54:50.263Z,75.63
2023-04-03T07:55:49.299Z,74.60
2023-04-03T07:56:49.388Z,73.67
2023-04-03T07:57:49.362Z,73.15
2023-04-03T07:58:49.263Z,72.94
2023-04-03T07:59:49.232Z,72.74
2023-04-03T08:00:49.295Z,72.42
2023-04-03T08:01:49.893Z,71.80
2023-04-03T08:02:49.278Z,71.39
2023-04-03T08:03:49.879Z,71.18
2023-04-03T08:04:49.359Z,70.97
2023-04-03T08:05:49.225Z,70.56
2023-04-03T08:06:49.162Z,70.46
2023-04-03T08:07:49.164Z,70.56
2023-04-03T08:08:49.154Z,70.36
2023-04-03T08:09:49.164Z,70.21
2023-04-03T08:10:49.124Z,70.11
2023-04-03T08:11:49.106Z,69.90
2023-04-03T08:12:49.109Z,69.80
2023-04-03T08:13:49.088Z,69.70
2023-04-03T08:14:49.116Z,69.70
2023-04-03T08:15:49.068Z,69.80
2023-04-03T08:16:49.110Z,69.70
2023-04-03T08:17:49.201Z,69.70
2023-04-03T08:18:49.027Z,69.35
2023-04-03T08:19:50.174Z,69.04
2023-04-03T08:20:49.878Z,68.63
2023-04-03T08:21:49.033Z,68.43
2023-04-03T08:22:49.102Z,68.43
2023-04-03T08:23:49.070Z,68.12
2023-04-03T08:24:58.710Z,67.18
2023-04-03T08:25:50.116Z,66.97
2023-04-03T08:26:48.947Z,66.94
2023-04-03T08:27:49.075Z,67.05
2023-04-03T08:28:49.111Z,66.94
2023-04-03T08:29:48.917Z,66.94
2023-04-03T08:30:48.997Z,66.74
2023-04-03T08:31:48.886Z,66.53
2023-04-03T08:32:48.927Z,66.53
2023-04-03T08:33:48.860Z,66.32
2023-04-03T08:34:48.868Z,66.53
2023-04-03T08:35:49.730Z,66.53
2023-04-03T08:36:48.859Z,66.60
2023-04-03T08:37:48.970Z,66.71
2023-04-03T08:38:48.859Z,66.60
2023-04-03T08:39:48.834Z,66.50
2023-04-03T08:40:48.852Z,66.50
2023-04-03T08:41:49.072Z,66.36
2023-04-03T08:42:48.878Z,66.16
2023-04-03T08:43:50.187Z,66.06
2023-04-03T08:44:48.761Z,65.85
2023-04-03T08:45:49.833Z,65.02
2023-04-03T08:46:49.714Z,63.99
2023-04-03T08:47:48.874Z,63.26
2023-04-03T08:48:48.776Z,63.06
2023-04-03T08:49:48.887Z,63.06
2023-04-03T08:50:53.180Z,63.06
2023-04-03T08:51:48.729Z,63.06
2023-04-03T08:52:48.766Z,63.23
2023-04-03T08:53:48.705Z,63.65
2023-04-03T08:54:48.637Z,63.23
2023-04-03T08:55:48.627Z,63.03
2023-04-03T08:56:48.632Z,62.30
2023-04-03T08:57:48.624Z,61.48
2023-04-03T08:58:48.618Z,60.55
2023-04-03T08:59:48.601Z,60.44
2023-04-03T09:00:48.607Z,59.72
2023-04-03T09:01:48.675Z,59.52
2023-04-03T09:02:48.808Z,59.52
2023-04-03T09:03:48.650Z,60.03
2023-04-03T09:04:48.673Z,60.44
2023-04-03T09:05:48.518Z,60.65
2023-04-03T09:06:48.565Z,60.75
2023-04-03T09:07:49.790Z,60.31
2023-04-03T09:08:48.507Z,60.31
2023-04-03T09:09:48.487Z,59.59
2023-04-03T09:10:48.496Z,59.28
2023-04-03T09:11:48.454Z,59.28
2023-04-03T09:12:48.460Z,59.39
2023-04-03T09:13:48.423Z,58.56
2023-04-03T09:14:49.464Z,58.04
2023-04-03T09:15:48.423Z,57.63
2023-04-03T09:16:48.396Z,57.73
2023-04-03T09:17:48.531Z,57.42
2023-04-03T09:18:48.390Z,57.11
2023-04-03T09:19:48.376Z,57.53
2023-04-03T09:20:49.328Z,57.84
2023-04-03T09:21:49.830Z,57.91
2023-04-03T09:22:52.395Z,57.40
2023-04-03T09:23:48.333Z,56.98
2023-04-03T09:24:49.250Z,57.19
2023-04-03T09:25:48.297Z,57.29
2023-04-03T09:26:49.865Z,57.29
2023-04-03T09:27:48.335Z,57.19
2023-04-03T09:28:50.803Z,56.88
2023-04-03T09:29:48.269Z,56.34
2023-04-03T09:30:48.252Z,56.44
2023-04-03T09:31:52.611Z,56.54
2023-04-03T09:32:48.339Z,56.23
2023-04-03T09:33:48.241Z,54.79
2023-04-03T09:34:48.211Z,54.27
2023-04-03T09:35:49.038Z,54.48
2023-04-03T09:36:48.337Z,54.46
2023-04-03T09:37:48.292Z,52.91
2023-04-03T09:38:48.378Z,51.98
2023-04-03T09:39:48.154Z,51.87
2023-04-03T09:40:48.146Z,52.29
2023-04-03T09:41:48.156Z,52.60
2023-04-03T09:42:55.329Z,51.46
2023-04-03T09:43:49.115Z,50.84
2023-04-03T09:44:48.099Z,50.84
2023-04-03T09:45:48.072Z,50.95
2023-04-03T09:46:48.093Z,50.84
2023-04-03T09:47:48.132Z,49.71
2023-04-03T09:48:50.007Z,49.61
2023-04-03T09:49:48.050Z,49.61
2023-04-03T09:50:48.057Z,50.23
2023-04-03T09:51:48.022Z,51.15
2023-04-03T09:52:48.535Z,51.23
2023-04-03T09:53:48.007Z,51.54
2023-04-03T09:54:47.989Z,51.03
2023-04-03T09:55:47.960Z,50.92
2023-04-03T09:56:47.953Z,49.99
2023-04-03T09:57:47.959Z,49.99
2023-04-03T09:58:50.737Z,49.58
2023-04-03T09:59:47.956Z,50.18
2023-04-03T10:00:47.961Z,56.88
2023-04-03T10:01:47.901Z,57.57
2023-04-03T10:02:48.059Z,56.03
2023-04-03T10:03:48.003Z,57.24
2023-04-03T10:04:53.080Z,58.14
2023-04-03T10:05:48.864Z,57.08
2023-04-03T10:06:47.898Z,56.54
2023-04-03T10:07:58.182Z,53.05
2023-04-03T10:08:58.185Z,50.78
2023-04-03T10:09:47.818Z,53.25
2023-04-03T10:10:47.814Z,52.33
2023-04-03T10:11:47.827Z,53.94
2023-04-03T10:12:47.796Z,54.87
2023-04-03T10:14:47.769Z,53.51
2023-04-03T10:15:47.740Z,52.76
2023-04-03T10:16:47.774Z,53.17
2023-04-03T10:17:47.827Z,52.46
2023-04-03T10:18:47.713Z,49.69
2023-04-03T10:19:47.755Z,48.66
2023-04-03T10:20:47.692Z,48.66
2023-04-03T10:21:47.820Z,47.74
2023-04-03T10:22:47.667Z,47.22
2023-04-03T10:23:47.668Z,47.33
2023-04-03T10:24:47.676Z,47.66
2023-04-03T10:25:47.646Z,48.07
2023-04-03T10:26:47.640Z,48.99
2023-04-03T10:27:47.609Z,49.60
2023-04-03T10:28:47.624Z,49.60
2023-04-03T10:29:47.588Z,49.27
2023-04-03T10:30:47.611Z,48.97
2023-04-03T10:31:47.560Z,48.97
2023-04-03T10:32:47.588Z,49.17
2023-04-03T10:33:47.556Z,49.27
2023-04-03T10:35:02.278Z,48.66
2023-04-03T10:35:48.549Z,48.35
2023-04-03T10:36:47.526Z,47.96
2023-04-03T10:37:48.480Z,48.17
2023-04-03T10:38:47.500Z,48.07
2023-04-03T10:39:47.516Z,48.17
2023-04-03T10:40:48.444Z,48.58
2023-04-03T10:41:47.451Z,48.68
2023-04-03T10:42:47.470Z,49.19
2023-04-03T10:43:48.918Z,49.22
2023-04-03T10:44:47.420Z,48.91
2023-04-03T10:45:47.452Z,48.50
2023-04-03T10:46:47.553Z,48.71
2023-04-03T10:47:47.408Z,48.81
2023-04-03T10:48:48.340Z,48.29
2023-04-03T10:50:47.363Z,47.78
2023-04-03T10:51:47.386Z,47.58
2023-04-03T10:52:47.538Z,48.19
2023-04-03T10:53:47.325Z,49.01
2023-04-03T10:54:47.380Z,48.39
2023-04-03T10:55:47.319Z,48.29
2023-04-03T10:56:51.182Z,48.09
2023-04-03T10:57:48.479Z,48.21
2023-04-03T10:58:47.297Z,48.09
2023-04-03T10:59:47.283Z,47.60
2023-04-03T11:00:47.257Z,47.49
2023-04-03T11:01:47.280Z,48.19
2023-04-03T11:02:47.390Z,48.50
2023-04-03T11:03:47.331Z,48.29
2023-04-03T11:04:47.774Z,48.60
2023-04-03T11:05:47.229Z,47.88
2023-04-03T11:06:47.189Z,48.29
2023-04-03T11:07:47.183Z,49.01
2023-04-03T11:08:47.203Z,49.63
2023-04-03T11:09:47.151Z,49.51
2023-04-03T11:10:47.174Z,49.91
2023-04-03T11:11:47.504Z,49.91
2023-04-03T11:12:47.956Z,49.09
2023-04-03T11:13:47.104Z,49.19
2023-04-03T11:14:47.112Z,49.71
2023-04-03T11:15:47.167Z,49.40
2023-04-03T11:16:53.393Z,48.89
2023-04-03T11:17:48.101Z,49.07
2023-04-03T11:18:47.060Z,49.58
2023-04-03T11:19:47.038Z,49.89
2023-04-03T11:20:47.068Z,50.51
2023-04-03T11:21:47.064Z,50.61
2023-04-03T11:22:47.074Z,50.20
2023-04-03T11:23:50.003Z,50.40
2023-04-03T11:24:51.421Z,50.40
2023-04-03T11:25:47.010Z,49.87
2023-04-03T11:26:46.972Z,48.74
2023-04-03T11:27:47.010Z,48.33
2023-04-03T11:28:46.958Z,48.25
2023-04-03T11:29:46.930Z,48.56
2023-04-03T11:30:46.950Z,48.25
2023-04-03T11:31:46.943Z,48.46
2023-04-03T11:32:46.920Z,48.66
2023-04-03T11:33:46.886Z,49.07
2023-04-03T11:34:46.909Z,49.38
2023-04-03T11:35:46.901Z,49.48
2023-04-03T11:36:46.952Z,49.48
2023-04-03T11:37:46.841Z,49.99
2023-04-03T11:38:46.843Z,50.18
2023-04-03T11:39:46.852Z,50.28
2023-04-03T11:40:46.818Z,49.77
2023-04-03T11:41:46.829Z,49.35
2023-04-03T11:42:46.807Z,49.26
2023-04-03T11:43:47.634Z,49.46
2023-04-03T11:44:46.769Z,49.35
2023-04-03T11:45:46.757Z,49.26
2023-04-03T11:46:46.806Z,48.74
2023-04-03T11:47:46.763Z,48.97
2023-04-03T11:48:46.721Z,49.35
2023-04-03T11:49:46.734Z,49.15
2023-04-03T11:50:46.700Z,48.97
2023-04-03T11:51:46.716Z,48.86
2023-04-03T11:52:46.670Z,48.86
2023-04-03T11:53:46.665Z,48.94
2023-04-03T11:54:46.692Z,49.15
2023-04-03T11:55:47.678Z,49.35
2023-04-03T11:56:46.629Z,49.26
2023-04-03T11:57:46.629Z,49.26
2023-04-03T11:58:46.600Z,49.97
2023-04-03T11:59:46.604Z,48.74
2023-04-03T12:00:46.590Z,48.54
2023-04-03T12:01:46.678Z,49.05
2023-04-03T12:02:54.191Z,49.56
2023-04-03T12:03:47.605Z,49.35
2023-04-03T12:04:46.568Z,48.74
2023-04-03T12:05:46.534Z,48.43
2023-04-03T12:06:46.525Z,49.15
2023-04-03T12:07:46.491Z,49.15
2023-04-03T12:08:46.491Z,48.33
2023-04-03T12:09:46.482Z,48.43
2023-04-03T12:10:46.496Z,48.13
2023-04-03T12:11:46.485Z,48.33
2023-04-03T12:12:46.439Z,48.02
2023-04-03T12:13:46.472Z,48.43
2023-04-03T12:14:46.440Z,48.33
2023-04-03T12:15:46.424Z,48.54
2023-04-03T12:16:46.446Z,48.13
2023-04-03T12:17:46.455Z,48.13
2023-04-03T12:18:46.574Z,47.89
2023-04-03T12:19:46.415Z,47.49
2023-04-03T12:20:46.366Z,47.89
2023-04-03T12:21:46.352Z,48.21
2023-04-03T12:22:46.383Z,48.00
2023-04-03T12:23:46.351Z,47.59
2023-04-03T12:24:46.468Z,47.16
2023-04-03T12:25:46.320Z,46.44
2023-04-03T12:26:49.076Z,46.64
2023-04-03T12:27:46.289Z,46.75
2023-04-03T12:28:46.287Z,46.83
2023-04-03T12:29:46.367Z,46.31
2023-04-03T12:30:46.308Z,45.98
2023-04-03T12:31:47.767Z,45.57
2023-04-03T12:32:46.313Z,44.94
2023-04-03T12:33:46.214Z,44.84
2023-04-03T12:34:46.203Z,44.92
2023-04-03T12:35:46.252Z,44.79
2023-04-03T12:36:46.168Z,44.65
2023-04-03T12:37:46.193Z,44.02
2023-04-03T12:38:46.163Z,43.29
2023-04-03T12:39:46.157Z,42.85
2023-04-03T12:40:46.193Z,42.02
2023-04-03T12:41:47.611Z,41.67
2023-04-03T12:42:46.128Z,41.45
2023-04-03T12:43:46.183Z,41.33
2023-04-03T12:44:46.098Z,41.09
2023-04-03T12:45:46.118Z,40.36
2023-04-03T12:46:46.150Z,39.53
2023-04-03T12:47:46.102Z,39.20
2023-04-03T12:48:46.043Z,39.00
2023-04-03T12:49:46.108Z,38.57
2023-04-03T12:50:46.113Z,37.76
2023-04-03T12:51:46.009Z,37.26
2023-04-03T12:52:46.013Z,37.13
2023-04-03T12:53:46.078Z,36.93
2023-04-03T12:54:45.984Z,36.32
2023-04-03T12:55:45.986Z,36.93